createdAt,value
2018-12-10T00:00:39.424Z,99354.48
2018-12-10T00:05:42.637Z,99359.05
2018-12-10T00:10:46.218Z,99370.83
2018-12-10T00:15:49.485Z,99386.52
2018-12-10T00:20:52.679Z,99399.23
2018-12-10T00:25:55.864Z,99404.56
2018-12-10T00:30:59.135Z,99416.12
2018-12-10T00:36:02.378Z,99405.20
2018-12-10T00:41:05.627Z,99419.56
2018-12-10T00:46:08.789Z,99418.28
2018-12-10T00:51:12.160Z,99449.63
2018-12-10T00:56:15.411Z,99433.44
2018-12-10T01:01:18.572Z,99439.84
2018-12-10T01:06:21.738Z,99454.05
2018-12-10T01:11:24.912Z,99457.67
2018-12-10T01:16:28.114Z,99473.83
2018-12-10T01:21:31.327Z,99493.28
2018-12-10T01:26:35.621Z,99481.40
2018-12-10T01:31:38.901Z,99494.73
2018-12-10T01:36:42.064Z,99499.08
2018-12-10T01:41:45.229Z,99505.46
2018-12-10T01:46:48.497Z,99520.53
2018-12-10T01:51:51.854Z,99525.59
2018-12-10T01:56:55.118Z,99534.93
2018-12-10T02:01:58.307Z,99534.13
2018-12-10T02:07:01.527Z,99545.16
2018-12-10T02:12:04.673Z,99545.03
2018-12-10T02:17:07.882Z,99541.66
2018-12-10T02:22:11.318Z,99533.30
2018-12-10T02:27:14.573Z,99534.93
2018-12-10T02:32:17.842Z,99558.15
2018-12-10T02:37:21.013Z,99560.78
2018-12-10T02:42:24.378Z,99562.60
2018-12-10T02:47:27.627Z,99565.50
2018-12-10T02:52:30.790Z,99565.87
2018-12-10T02:57:34.046Z,99579.91
2018-12-10T03:02:37.211Z,99595.25
2018-12-10T03:07:40.482Z,99600.69
2018-12-10T03:12:43.681Z,99596.94
2018-12-10T03:17:46.950Z,99600.95
2018-12-10T03:22:50.134Z,99594.17
2018-12-10T03:27:53.303Z,99611.94
2018-12-10T03:32:56.577Z,99646.38
2018-12-10T03:37:59.811Z,99643.49
2018-12-10T03:43:03.110Z,99643.17
2018-12-10T03:48:06.385Z,99637.44
2018-12-10T03:53:09.686Z,99646.30
2018-12-10T03:58:13.099Z,99643.66
2018-12-10T04:03:16.293Z,99644.00
2018-12-10T04:08:19.593Z,99660.61
2018-12-10T04:13:22.768Z,99683.15
2018-12-10T04:18:26.072Z,99696.28
2018-12-10T04:23:29.375Z,99685.43
2018-12-10T04:28:32.693Z,99693.82
2018-12-10T04:33:36.003Z,99707.94
2018-12-10T04:38:39.399Z,99713.55
2018-12-10T04:43:42.702Z,99716.84
2018-12-10T04:48:45.865Z,99718.63
2018-12-10T04:53:49.040Z,99717.64
2018-12-10T04:58:52.222Z,99725.39
2018-12-10T05:03:55.550Z,99733.47
2018-12-10T05:08:58.758Z,99736.75
2018-12-10T05:14:02.154Z,99766.67
2018-12-10T05:19:05.398Z,99766.20
2018-12-10T05:24:08.595Z,99767.31
2018-12-10T05:29:11.767Z,99776.04
2018-12-10T05:34:15.054Z,99773.04
2018-12-10T05:39:18.264Z,99786.89
2018-12-10T05:44:21.530Z,99787.55
2018-12-10T05:49:24.683Z,99785.75
2018-12-10T05:54:27.866Z,99780.01
2018-12-10T05:59:31.041Z,99786.27
2018-12-10T06:04:34.195Z,99790.53
2018-12-10T06:09:37.463Z,99817.02
2018-12-10T06:14:40.626Z,99805.95
2018-12-10T06:19:44.027Z,99824.25
2018-12-10T06:24:47.405Z,99833.13
2018-12-10T06:29:50.839Z,99849.77
2018-12-10T06:34:54.266Z,99842.16
2018-12-10T06:39:57.438Z,99838.39
2018-12-10T06:45:00.627Z,99847.27
2018-12-10T06:50:04.202Z,99855.84
2018-12-10T06:55:07.698Z,99874.58
2018-12-10T07:00:12.054Z,99899.03
2018-12-10T07:05:15.321Z,99884.80
2018-12-10T07:10:18.619Z,99892.00
2018-12-10T07:15:21.942Z,99901.84
2018-12-10T07:20:25.298Z,99896.80
2018-12-10T07:25:28.649Z,99908.15
2018-12-10T07:30:31.966Z,99923.45
2018-12-10T07:35:35.334Z,99927.58
2018-12-10T07:40:38.558Z,99934.48
2018-12-10T07:45:41.762Z,99914.72
2018-12-10T07:50:44.939Z,99947.13
2018-12-10T08:01:19.486Z,99957.36
2018-12-10T08:06:22.705Z,99955.92
2018-12-10T08:11:25.891Z,99985.55
2018-12-10T08:16:29.062Z,99963.55
2018-12-10T08:21:32.463Z,99993.16
2018-12-10T08:26:35.622Z,99993.42
2018-12-10T08:31:38.850Z,99992.27
2018-12-10T08:36:42.036Z,99977.52
2018-12-10T08:41:45.506Z,99995.19
2018-12-10T08:46:48.674Z,100001.56
2018-12-10T08:51:51.930Z,100010.52
2018-12-10T08:56:55.377Z,100020.01
2018-12-10T09:01:58.753Z,100000.06
2018-12-10T09:07:01.962Z,100050.39
2018-12-10T09:12:05.201Z,100033.00
2018-12-10T09:17:08.367Z,100028.44
2018-12-10T09:22:11.570Z,100041.05
2018-12-10T09:27:14.810Z,100028.72
2018-12-10T09:32:18.111Z,100027.20
2018-12-10T09:37:21.283Z,100040.79
2018-12-10T09:42:24.513Z,100044.03
2018-12-10T09:47:27.792Z,100041.92
2018-12-10T09:52:31.016Z,100046.37
2018-12-10T09:57:34.184Z,100055.72
2018-12-10T10:02:37.341Z,100054.66
2018-12-10T10:07:40.534Z,100047.95
2018-12-10T10:12:43.823Z,100053.66
2018-12-10T10:17:47.146Z,100043.01
2018-12-10T10:22:50.405Z,100050.03
2018-12-10T10:27:53.594Z,100049.73
2018-12-10T10:32:56.751Z,100058.48
2018-12-10T10:37:59.917Z,100055.23
2018-12-10T10:43:03.182Z,100044.72
2018-12-10T10:48:06.450Z,100052.19
2018-12-10T10:53:09.621Z,100042.47
2018-12-10T10:58:12.818Z,100051.83
2018-12-10T11:03:21.296Z,100032.80
2018-12-10T11:08:24.618Z,100051.55
2018-12-10T11:13:27.902Z,100044.41
2018-12-10T11:18:32.430Z,100037.76
2018-12-10T11:23:35.676Z,100050.37
2018-12-10T11:28:38.862Z,100036.06
2018-12-10T11:33:42.046Z,100040.55
2018-12-10T11:38:46.070Z,100026.16
2018-12-10T11:43:49.274Z,100044.02
2018-12-10T11:48:52.497Z,100030.50
2018-12-10T11:53:55.650Z,100009.81
2018-12-10T11:58:58.919Z,100011.88
2018-12-10T12:04:02.123Z,100036.83
2018-12-10T12:09:06.057Z,100012.10
2018-12-10T12:14:09.316Z,99994.20
2018-12-10T12:19:12.555Z,99999.31
2018-12-10T12:24:15.800Z,99997.79
2018-12-10T12:29:19.169Z,100002.59
2018-12-10T12:34:22.346Z,100010.81
2018-12-10T12:39:25.586Z,99998.02
2018-12-10T12:44:28.758Z,99990.11
2018-12-10T12:49:32.054Z,100009.87
2018-12-10T12:54:35.405Z,99998.36
2018-12-10T12:59:38.614Z,100005.92
2018-12-10T13:04:41.790Z,100005.92
2018-12-10T13:09:45.046Z,100013.99
2018-12-10T13:14:48.234Z,100007.22
2018-12-10T13:19:51.457Z,99994.05
2018-12-10T13:24:54.758Z,100002.28
2018-12-10T13:29:57.990Z,99999.13
2018-12-10T13:35:01.184Z,100002.07
2018-12-10T13:40:05.201Z,100012.03
2018-12-10T13:45:08.382Z,100014.70
2018-12-10T13:50:11.626Z,100052.84
2018-12-10T13:55:14.809Z,100025.62
2018-12-10T14:00:18.073Z,100027.58
2018-12-10T14:05:21.307Z,100034.11
2018-12-10T14:10:24.618Z,100040.85
2018-12-10T14:15:28.962Z,100048.26
2018-12-10T14:20:32.208Z,100038.11
2018-12-10T14:25:35.478Z,100042.58
2018-12-10T14:30:39.226Z,100045.05
2018-12-10T14:35:42.410Z,100048.51
2018-12-10T14:40:45.718Z,100040.75
2018-12-10T14:45:48.998Z,100050.16
2018-12-10T14:50:52.166Z,100061.81
2018-12-10T14:55:55.343Z,100037.23
2018-12-10T15:06:31.914Z,100040.00
2018-12-10T15:11:35.177Z,100074.64
2018-12-10T15:16:38.353Z,100086.28
2018-12-10T15:21:41.683Z,100067.70
2018-12-10T15:26:44.874Z,100071.56
2018-12-10T15:31:48.070Z,100076.33
2018-12-10T15:36:51.264Z,100068.56
2018-12-10T15:41:54.545Z,100069.22
2018-12-10T15:46:57.807Z,100069.88
2018-12-10T15:52:01.059Z,100078.97
2018-12-10T15:57:04.450Z,100084.59
2018-12-10T16:02:07.694Z,100064.70
2018-12-10T16:52:28.656Z,100069.64
2018-12-10T16:57:31.960Z,100067.06
2018-12-10T17:41:57.506Z,100045.32
2018-12-10T17:47:00.834Z,100045.27
2018-12-10T17:52:04.167Z,100034.98
2018-12-10T18:55:19.848Z,100039.56
2018-12-10T19:00:23.232Z,100039.34
2018-12-10T19:05:29.080Z,100035.13
2018-12-10T19:10:44.857Z,100043.19
2018-12-10T19:15:48.285Z,100028.14
2018-12-10T19:20:51.721Z,100048.55
2018-12-10T19:25:55.084Z,100041.59
2018-12-10T19:30:58.280Z,100039.08
2018-12-10T19:36:01.501Z,100029.80
2018-12-10T19:41:04.863Z,100044.34
2018-12-10T19:46:08.252Z,100049.60
2018-12-10T19:56:38.872Z,100046.03
2018-12-10T20:35:27.826Z,100041.91
2018-12-10T20:40:37.585Z,100036.78
2018-12-10T20:45:46.522Z,100042.42
2018-12-10T20:50:55.733Z,100026.50
2018-12-10T20:56:05.385Z,100036.72
2018-12-10T21:01:16.585Z,100032.41
2018-12-10T21:06:31.252Z,100041.48
2018-12-10T21:11:34.653Z,100050.53
2018-12-10T21:16:38.141Z,100023.98
2018-12-10T21:21:41.603Z,100056.19
2018-12-10T21:26:45.320Z,100002.63
2018-12-10T21:31:48.926Z,100006.63
2018-12-10T21:36:52.231Z,100026.89
2018-12-10T21:41:55.733Z,100003.20
2018-12-10T21:46:59.209Z,100005.52
2018-12-10T21:52:02.420Z,99999.83
2018-12-10T21:57:05.705Z,99999.31
2018-12-10T22:02:09.125Z,100009.67
2018-12-10T22:12:43.556Z,99984.10
2018-12-10T22:17:46.901Z,99980.11
2018-12-10T22:22:50.293Z,99980.06
2018-12-10T22:27:53.793Z,99976.77
2018-12-10T22:32:57.105Z,99986.95
2018-12-10T22:38:00.469Z,99976.17
2018-12-10T22:43:03.885Z,99981.25
2018-12-10T22:48:07.276Z,99990.00
2018-12-10T22:53:10.770Z,99988.68
2018-12-10T22:58:14.113Z,100008.22
2018-12-10T23:03:17.398Z,99982.17
2018-12-10T23:08:20.665Z,99993.24
2018-12-10T23:13:23.856Z,99981.09
2018-12-10T23:18:27.113Z,100002.87
2018-12-10T23:23:30.444Z,99986.29
2018-12-10T23:28:33.834Z,99978.64
2018-12-10T23:33:37.089Z,99998.16
2018-12-10T23:38:40.367Z,100012.32
2018-12-10T23:43:43.552Z,99974.89
2018-12-10T23:48:46.936Z,99982.69
2018-12-10T23:53:50.150Z,99999.92
2018-12-10T23:58:53.626Z,99993.55
